Loudon, Tennessee
Current Conditions -  °F | °C
As of 8:53 AM on Wednesday 28 Jan 2015 (Local Time) from KTYS Reporting Station
Clear Clear  
Wind Chill: 19°   Ceiling: Unl
Heat Index: 28°   Visibility: 10mi
Dew Point: 16°   Wind: 9mph
Humidity: 61%   Direction: 30°NNE
Pressure: 30.32"   Gusts: NA
Location:  35.73°N, 84.33°W
Report Text: KTYS 281353Z 03008KT 10SM CLR M02/M09 A3032 RMK AO2 SLP276 T10221089
Loading
Personal Weather Stations






























Interactive Weather Map New forecast layout! Learn more

10-Day Weather Forecast

Advertisements
Track Severe Weather on mobile